Time;durP1;ratioP1;P1;durP2;ratioP2;P2;SDS_P1;SDS_P2;PMS_P1;PMS_P2;Temp;Humidity;BMP_temperature;BMP_pressure;BME280_temperature;BME280_humidity;BME280_pressure;Samples;Min_cycle;Max_cycle;Signal;HPM_P1;HPM_P2
2022/05/18 00:00:29;;;;;;;;;12.00;12.00;;;;;25.73;49.46;101229.81;5086868;27;45440;-82
2022/05/18 00:03:05;;;;;;;;;15.75;14.75;;;;;25.72;49.32;101221.84;5080644;27;45299;-80
2022/05/18 00:05:35;;;;;;;;;42.25;35.75;;;;;25.69;49.23;101225.75;5081588;27;46038;-81
2022/05/18 00:08:01;;;;;;;;;30.50;25.50;;;;;25.74;49.10;101230.69;5077924;27;45661;-81
2022/05/18 00:10:27;;;;;;;;;23.75;22.00;;;;;25.75;48.98;101237.84;5080879;27;45444;-81
2022/05/18 00:12:53;;;;;;;;;15.00;13.50;;;;;25.70;48.65;101229.34;5086581;27;45394;-81
2022/05/18 00:15:21;;;;;;;;;28.50;27.50;;;;;25.74;48.88;101238.88;5081093;27;45432;-82
2022/05/18 00:17:47;;;;;;;;;32.75;29.25;;;;;25.75;48.38;101234.28;5079487;27;45412;-79
2022/05/18 00:20:12;;;;;;;;;49.00;39.75;;;;;25.73;48.82;101224.38;5085271;27;45421;-80
2022/05/18 00:22:49;;;;;;;;;64.00;50.25;;;;;25.75;49.00;101224.22;5082358;27;45489;-80
2022/05/18 00:25:16;;;;;;;;;79.67;70.00;;;;;25.75;49.41;101235.13;5080006;27;45507;-79
2022/05/18 00:27:41;;;;;;;;;32.50;30.25;;;;;25.67;50.75;101224.25;5078308;27;45624;-79
2022/05/18 00:30:08;;;;;;;;;28.75;26.50;;;;;25.69;50.82;101233.94;5090374;27;45623;-79
2022/05/18 00:32:33;;;;;;;;;40.75;33.75;;;;;25.65;49.93;101231.75;5090685;27;45614;-78
2022/05/18 00:34:59;;;;;;;;;16.75;15.50;;;;;25.66;49.50;101238.88;5084190;27;46808;-80
2022/05/18 00:37:24;;;;;;;;;36.25;31.75;;;;;25.60;49.58;101243.16;5076319;27;56494;-80
2022/05/18 00:39:49;;;;;;;;;14.25;13.50;;;;;25.62;49.25;101249.31;5093490;27;45334;-79
2022/05/18 00:42:20;;;;;;;;;16.50;13.00;;;;;25.57;49.27;101248.97;5087423;27;45231;-81
2022/05/18 00:44:46;;;;;;;;;6.25;6.25;;;;;25.55;49.63;101247.44;5087547;27;45532;-81
2022/05/18 00:47:12;;;;;;;;;7.50;7.50;;;;;25.54;50.12;101257.47;5088256;27;48735;-80
2022/05/18 00:49:39;;;;;;;;;10.00;10.00;;;;;25.53;50.20;101263.13;5090281;27;45557;-81
2022/05/18 00:52:06;;;;;;;;;11.75;11.75;;;;;25.47;50.57;101273.69;5094789;27;45454;-81
2022/05/18 00:54:34;;;;;;;;;7.00;7.00;;;;;25.45;50.46;101272.16;5086499;27;45812;-81
2022/05/18 00:57:10;;;;;;;;;9.75;9.25;;;;;25.41;50.70;101279.81;5090258;27;45441;-80
2022/05/18 00:59:53;;;;;;;;;13.00;9.75;;;;;25.41;51.36;101277.06;5093650;27;45680;-81
2022/05/18 01:02:21;;;;;;;;;5.50;5.50;;;;;25.39;51.55;101272.81;5088886;27;45382;-79
2022/05/18 01:04:50;;;;;;;;;7.25;7.00;;;;;25.39;51.53;101279.13;5086484;27;45424;-80
2022/05/18 01:07:26;;;;;;;;;8.25;6.25;;;;;25.32;51.19;101269.06;5092741;27;45560;-80
2022/05/18 01:09:51;;;;;;;;;8.50;8.00;;;;;25.29;51.82;101284.72;5100291;27;45309;-80
2022/05/18 01:12:20;;;;;;;;;5.25;5.25;;;;;25.25;51.25;101275.19;5091425;27;45300;-79
2022/05/18 01:14:50;;;;;;;;;5.00;5.00;;;;;25.17;51.24;101280.63;5093293;27;45426;-79
2022/05/18 01:17:29;;;;;;;;;2.00;2.00;;;;;25.12;51.83;101287.59;5078985;27;45531;-79
2022/05/18 01:19:58;;;;;;;;;7.50;7.00;;;;;25.07;52.01;101283.50;5080792;27;45423;-80
2022/05/18 01:22:44;;;;;;;;;7.75;7.75;;;;;25.05;51.96;101293.69;5080852;27;45405;-79
2022/05/18 01:25:37;;;;;;;;;6.00;6.00;;;;;25.02;51.83;101301.38;5079136;27;45428;-79
2022/05/18 01:28:05;;;;;;;;;6.75;5.00;;;;;24.97;51.40;101301.88;5077879;27;45623;-79
2022/05/18 01:30:33;;;;;;;;;5.00;5.00;;;;;24.87;52.37;101288.41;5075944;27;45281;-79
2022/05/18 01:33:03;;;;;;;;;8.25;8.25;;;;;24.86;52.59;101294.00;5077380;27;45487;-79
2022/05/18 01:35:31;;;;;;;;;5.25;5.25;;;;;24.81;52.68;101291.78;5077552;27;45617;-79
2022/05/18 01:37:59;;;;;;;;;5.75;4.75;;;;;24.81;53.14;101291.78;5077522;27;45435;-80
2022/05/18 01:40:59;;;;;;;;;4.00;4.00;;;;;24.81;53.24;101294.50;5078010;27;45504;-79
2022/05/18 01:43:35;;;;;;;;;6.75;6.75;;;;;24.74;53.34;101287.16;5080886;27;45507;-80
2022/05/18 01:46:03;;;;;;;;;5.00;5.00;;;;;24.71;53.41;101296.50;5076936;27;45434;-78
2022/05/18 01:48:35;;;;;;;;;5.00;5.00;;;;;24.71;53.50;101309.28;5077734;27;46468;-79
2022/05/18 01:51:02;;;;;;;;;6.00;6.00;;;;;24.64;53.41;101304.47;5079991;27;45522;-79
2022/05/18 01:53:29;;;;;;;;;5.00;5.00;;;;;24.67;53.64;101312.31;5080568;27;45668;-80
2022/05/18 01:55:56;;;;;;;;;6.00;6.00;;;;;24.64;53.98;101312.66;5080598;27;45371;-80
2022/05/18 01:58:22;;;;;;;;;7.00;5.25;;;;;24.59;54.29;101316.88;5075932;27;45539;-79
2022/05/18 02:00:48;;;;;;;;;8.75;6.50;;;;;24.51;54.62;101289.63;5093539;27;45355;-80
2022/05/18 02:03:14;;;;;;;;;6.50;6.50;;;;;24.53;54.66;101302.03;5095834;27;45520;-80
2022/05/18 02:05:41;;;;;;;;;6.00;6.00;;;;;24.49;54.67;101310.72;5093487;27;45366;-80
2022/05/18 02:08:07;;;;;;;;;5.00;5.00;;;;;24.41;54.80;101317.81;5093394;27;45452;-80
2022/05/18 02:10:33;;;;;;;;;7.75;7.00;;;;;24.36;55.04;101317.41;5093419;27;45406;-80
2022/05/18 02:12:59;;;;;;;;;5.00;5.00;;;;;24.28;55.45;101314.66;5093667;27;45377;-82
2022/05/18 02:15:24;;;;;;;;;7.75;6.00;;;;;24.27;55.44;101309.38;5094100;27;46256;-81
2022/05/18 02:17:51;;;;;;;;;6.75;5.50;;;;;24.22;55.66;101316.16;5094121;27;45444;-81
2022/05/18 02:20:18;;;;;;;;;5.75;5.75;;;;;24.16;55.80;101319.53;5093511;27;45439;-81
2022/05/18 02:22:44;;;;;;;;;6.75;5.25;;;;;24.09;56.47;101326.63;5093273;27;45575;-81
2022/05/18 02:25:09;;;;;;;;;6.00;6.00;;;;;24.03;56.31;101336.28;5093303;27;46208;-81
2022/05/18 02:27:35;;;;;;;;;10.50;7.00;;;;;23.98;57.04;101346.78;5093518;27;45398;-81
2022/05/18 02:30:02;;;;;;;;;7.50;5.00;;;;;23.95;56.35;101341.66;5095039;27;45430;-81
2022/05/18 02:32:28;;;;;;;;;4.50;4.50;;;;;23.90;57.34;101345.88;5093066;27;45471;-81
2022/05/18 02:34:53;;;;;;;;;6.00;6.00;;;;;23.85;57.25;101354.50;5091643;27;45550;-81
2022/05/18 02:37:18;;;;;;;;;6.25;6.25;;;;;23.80;57.53;101360.41;5093146;27;45358;-81
2022/05/18 02:39:44;;;;;;;;;5.75;5.75;;;;;23.76;57.73;101360.88;5093369;27;45350;-81
2022/05/18 02:42:09;;;;;;;;;10.75;6.50;;;;;23.70;58.10;101350.59;5095395;27;45510;-80
2022/05/18 02:44:35;;;;;;;;;5.00;5.00;;;;;23.68;58.00;101360.78;5090931;27;45442;-80
2022/05/18 02:47:00;;;;;;;;;6.00;6.00;;;;;23.68;57.92;101366.22;5093036;27;45872;-80
2022/05/18 02:49:27;;;;;;;;;4.50;4.50;;;;;23.60;57.31;101370.56;5093173;27;45457;-80
2022/05/18 02:51:53;;;;;;;;;4.00;4.00;;;;;23.53;57.96;101371.34;5093078;27;45284;-80
2022/05/18 02:57:05;;;;;;;;;6.50;5.00;;;;;23.45;58.15;101372.13;5093089;27;45471;-81
2022/05/18 02:59:31;;;;;;;;;6.50;6.50;;;;;23.39;58.05;101372.75;5092811;27;45335;-80
2022/05/18 03:01:56;;;;;;;;;7.00;5.75;;;;;23.39;58.55;101372.75;5095901;27;45501;-79
2022/05/18 03:04:21;;;;;;;;;5.75;5.50;;;;;23.29;58.24;101367.38;5096302;27;45976;-79
2022/05/18 03:06:47;;;;;;;;;6.50;6.50;;;;;23.30;58.25;101379.94;5096190;27;45460;-79
2022/05/18 03:09:12;;;;;;;;;5.25;4.00;;;;;23.28;58.26;101376.56;5098510;27;45560;-79
2022/05/18 03:11:38;;;;;;;;;4.50;4.25;;;;;23.24;58.38;101388.72;5096282;27;45474;-79
2022/05/18 03:14:03;;;;;;;;;5.00;5.00;;;;;23.16;57.94;101377.75;5094271;27;46027;-78
2022/05/18 03:16:30;;;;;;;;;3.00;3.00;;;;;23.11;57.69;101378.22;5096043;27;45399;-79
2022/05/18 03:18:55;;;;;;;;;4.25;4.25;;;;;23.01;57.88;101377.41;5096255;27;45554;-79
2022/05/18 03:24:18;;;;;;;;;4.75;4.75;;;;;22.82;58.48;101386.47;5079958;27;45505;-79
2022/05/18 03:26:44;;;;;;;;;4.00;4.00;;;;;22.81;58.51;101392.09;5078689;27;51711;-79
2022/05/18 03:29:09;;;;;;;;;5.00;5.00;;;;;22.74;58.82;101381.81;5078805;27;45391;-79
2022/05/18 03:31:34;;;;;;;;;4.25;4.25;;;;;22.72;58.70;101386.53;5079334;27;45515;-79
2022/05/18 03:34:00;;;;;;;;;4.00;4.00;;;;;22.69;58.69;101402.28;5075596;27;45632;-79
2022/05/18 03:36:26;;;;;;;;;4.50;4.50;;;;;22.67;58.24;101399.69;5078118;27;45450;-79
2022/05/18 03:38:52;;;;;;;;;3.50;3.50;;;;;22.66;58.34;101408.00;5079577;27;45490;-80
2022/05/18 03:41:18;;;;;;;;;2.50;2.50;;;;;22.59;58.33;101417.75;5078578;27;45514;-80
2022/05/18 03:43:45;;;;;;;;;4.00;3.00;;;;;22.55;56.96;101419.88;5078705;27;45414;-80
2022/05/18 03:46:11;;;;;;;;;3.25;2.00;;;;;22.41;57.09;101406.78;5076949;27;45596;-79
2022/05/18 03:48:38;;;;;;;;;2.75;2.75;;;;;22.36;57.89;101417.22;5076344;27;45604;-80
2022/05/18 03:51:05;;;;;;;;;3.75;2.75;;;;;22.38;57.76;101426.94;5079773;27;46263;-80
2022/05/18 03:53:31;;;;;;;;;3.00;3.00;;;;;22.34;57.50;101433.63;5078682;27;45764;-79
2022/05/18 03:55:57;;;;;;;;;2.75;2.50;;;;;22.27;57.76;101427.09;5078578;27;45334;-80
2022/05/18 03:58:22;;;;;;;;;2.00;2.00;;;;;22.18;57.45;101431.50;5078332;27;45462;-80
2022/05/18 04:00:50;;;;;;;;;2.25;1.25;;;;;22.18;57.60;101441.50;5092152;27;45637;-81
2022/05/18 04:03:16;;;;;;;;;1.25;1.25;;;;;22.10;57.72;101443.09;5097159;27;45413;-80
2022/05/18 04:05:42;;;;;;;;;2.00;2.00;;;;;22.08;58.12;101439.66;5095228;27;45235;-80
2022/05/18 04:08:10;;;;;;;;;5.00;3.25;;;;;22.05;57.91;101441.78;5095220;27;45454;-80
2022/05/18 04:10:38;;;;;;;;;1.50;1.50;;;;;21.89;57.50;101445.09;5095314;27;45342;-79
2022/05/18 04:13:10;;;;;;;;;2.00;2.00;;;;;21.88;57.14;101440.66;5094646;27;45410;-79
2022/05/18 04:15:36;;;;;;;;;1.00;1.00;;;;;21.86;56.97;101456.19;5094715;27;45471;-80
2022/05/18 04:18:02;;;;;;;;;2.50;2.50;;;;;21.81;57.00;101459.34;5094926;27;45397;-80
2022/05/18 04:20:28;;;;;;;;;1.50;1.50;;;;;21.66;56.91;101439.94;5095037;27;45518;-80
2022/05/18 04:22:53;;;;;;;;;2.25;2.00;;;;;21.73;56.22;101459.19;5094613;27;48765;-80
2022/05/18 04:25:22;;;;;;;;;1.75;1.75;;;;;21.62;56.38;101454.78;5094980;27;45395;-79
2022/05/18 04:27:47;;;;;;;;;1.25;1.25;;;;;21.59;56.84;101467.72;5094737;27;45406;-80
2022/05/18 04:30:18;;;;;;;;;1.25;1.25;;;;;21.54;56.50;101464.59;5097053;27;45478;-80
2022/05/18 04:32:43;;;;;;;;;1.00;1.00;;;;;21.48;56.34;101475.00;5093272;27;46343;-80
2022/05/18 04:35:12;;;;;;;;;1.00;1.00;;;;;21.45;56.48;101468.97;5094400;27;45444;-81
2022/05/18 04:37:37;;;;;;;;;1.00;1.00;;;;;21.40;56.77;101460.41;5094528;27;47909;-81
2022/05/18 04:40:04;;;;;;;;;2.50;1.25;;;;;21.39;56.77;101461.41;5092665;27;45345;-78
2022/05/18 04:42:30;;;;;;;;;1.00;1.00;;;;;21.43;56.76;101469.13;5095404;27;46651;-80
2022/05/18 04:44:55;;;;;;;;;1.00;1.00;;;;;21.42;56.85;101477.41;5095514;27;45318;-80
2022/05/18 04:47:21;;;;;;;;;1.00;1.00;;;;;21.41;56.20;101479.25;5094080;27;45488;-80
2022/05/18 04:49:47;;;;;;;;;1.00;1.00;;;;;21.39;55.76;101478.53;5094204;27;45354;-79
2022/05/18 04:52:13;;;;;;;;;1.00;1.00;;;;;21.36;56.18;101480.59;5094158;27;45452;-80
2022/05/18 04:54:39;;;;;;;;;1.75;1.75;;;;;21.28;56.60;101470.47;5094051;27;45398;-79
2022/05/18 04:57:04;;;;;;;;;1.00;1.00;;;;;21.36;56.20;101494.16;5096577;27;45394;-80
2022/05/18 04:59:30;;;;;;;;;2.25;1.25;;;;;21.32;56.48;101503.56;5094412;27;45346;-80
2022/05/18 05:01:55;;;;;;;;;1.00;1.00;;;;;21.25;56.23;101487.84;5093787;27;45278;-80
2022/05/18 05:04:21;;;;;;;;;1.75;1.75;;;;;21.22;56.10;101488.13;5094217;27;45528;-80
2022/05/18 05:06:46;;;;;;;;;1.00;1.00;;;;;21.31;55.99;101504.56;5094476;27;45525;-82
2022/05/18 05:09:12;;;;;;;;;2.00;1.00;;;;;21.31;55.88;101516.25;5095662;27;45372;-81
2022/05/18 05:11:38;;;;;;;;;2.25;2.25;;;;;21.17;55.54;101484.13;5092106;27;45491;-80
2022/05/18 05:14:05;;;;;;;;;1.00;1.00;;;;;21.32;55.69;101514.41;5094026;27;45374;-80
2022/05/18 05:16:31;;;;;;;;;2.00;2.00;;;;;21.32;55.55;101520.69;5094035;27;45416;-80
2022/05/18 05:18:57;;;;;;;;;2.50;1.00;;;;;21.21;55.99;101507.22;5092675;27;47090;-80
2022/05/18 05:21:23;;;;;;;;;1.00;1.00;;;;;21.24;55.55;101504.25;5094398;27;46589;-79
2022/05/18 05:23:48;;;;;;;;;3.00;2.00;;;;;21.27;55.44;101522.94;5093006;27;45481;-80
2022/05/18 05:26:14;;;;;;;;;2.00;2.00;;;;;21.22;55.63;101512.50;5093995;27;45493;-79
2022/05/18 05:28:40;;;;;;;;;2.00;2.00;;;;;21.26;55.55;101516.66;5093721;27;45356;-79
2022/05/18 05:31:08;;;;;;;;;2.00;2.00;;;;;21.27;56.11;101517.53;5093922;27;45416;-79
2022/05/18 05:33:35;;;;;;;;;1.00;1.00;;;;;21.29;55.26;101523.66;5093265;27;45402;-80
2022/05/18 05:36:00;;;;;;;;;1.50;1.50;;;;;21.30;55.58;101530.78;5094232;27;45534;-79
2022/05/18 05:38:26;;;;;;;;;1.00;1.00;;;;;21.30;55.51;101533.50;5093018;27;45478;-78
2022/05/18 05:40:51;;;;;;;;;1.00;1.00;;;;;21.27;55.35;101533.78;5093377;27;45386;-78
2022/05/18 05:43:17;;;;;;;;;2.00;2.00;;;;;21.27;54.96;101534.63;5093832;27;45291;-80
2022/05/18 05:45:53;;;;;;;;;1.75;1.00;;;;;21.30;55.18;101538.06;5093746;27;45606;-79
2022/05/18 05:48:18;;;;;;;;;4.25;2.00;;;;;21.23;55.09;101544.00;5089926;27;45318;-79
2022/05/18 05:50:43;;;;;;;;;3.00;1.50;;;;;21.28;54.73;101549.88;5093718;27;54617;-79
2022/05/18 05:53:09;;;;;;;;;0.25;0.25;;;;;21.28;54.89;101560.69;5092899;27;45451;-79
2022/05/18 05:55:34;;;;;;;;;1.00;1.00;;;;;21.28;54.81;101555.28;5093820;27;45576;-79
2022/05/18 05:58:00;;;;;;;;;1.00;1.00;;;;;21.30;55.01;101548.88;5092040;27;45544;-79
2022/05/18 06:00:25;;;;;;;;;1.00;1.00;;;;;21.25;54.45;101549.31;5094165;27;46144;-81
2022/05/18 06:02:51;;;;;;;;;14.25;14.25;;;;;21.28;54.62;101555.28;5091873;27;45346;-79
2022/05/18 06:05:20;;;;;;;;;21.50;16.75;;;;;21.35;54.52;101579.13;5090636;27;45438;-79
2022/05/18 06:07:46;;;;;;;;;1.75;1.75;;;;;21.31;54.72;101564.13;5087841;27;45443;-79
2022/05/18 06:10:12;;;;;;;;;2.50;1.50;;;;;21.36;54.44;101564.59;5092570;27;46066;-79
2022/05/18 06:12:38;;;;;;;;;2.50;1.00;;;;;21.34;54.48;101564.75;5093424;27;45474;-79
2022/05/18 06:15:05;;;;;;;;;2.00;2.00;;;;;21.39;54.48;101567.94;5093726;27;45764;-79
2022/05/18 06:17:30;;;;;;;;;0.75;0.75;;;;;21.41;54.87;101565.94;5090501;27;45453;-79
2022/05/18 06:19:55;;;;;;;;;0.00;0.00;;;;;21.39;54.26;101559.78;5092678;27;54475;-79
2022/05/18 06:22:21;;;;;;;;;1.25;1.25;;;;;21.45;53.87;101564.69;5093408;27;45572;-79
2022/05/18 06:24:49;;;;;;;;;1.00;1.00;;;;;21.51;53.97;101571.41;5092589;27;45391;-79
2022/05/18 06:27:15;;;;;;;;;1.00;1.00;;;;;21.51;53.74;101562.41;5095350;27;45681;-79
2022/05/18 06:29:41;;;;;;;;;2.25;1.50;;;;;21.48;53.98;101558.97;5089742;27;47171;-80
2022/05/18 06:32:07;;;;;;;;;1.00;1.00;;;;;21.56;53.67;101577.25;5088088;27;45467;-80
2022/05/18 06:34:32;;;;;;;;;1.00;1.00;;;;;21.58;53.91;101572.56;5091863;27;45463;-79
2022/05/18 06:36:57;;;;;;;;;3.50;2.00;;;;;21.53;53.52;101564.00;5093616;27;45469;-79
2022/05/18 06:39:23;;;;;;;;;1.00;1.00;;;;;21.59;53.17;101560.72;5097839;27;45268;-79
2022/05/18 06:41:48;;;;;;;;;1.00;1.00;;;;;21.62;53.29;101576.72;5093164;27;45491;-79
2022/05/18 06:44:14;;;;;;;;;1.00;1.00;;;;;21.62;53.42;101574.00;5096189;27;45370;-79
2022/05/18 06:46:39;;;;;;;;;0.25;0.25;;;;;21.67;53.43;101582.59;5094118;27;45463;-80
2022/05/18 06:49:07;;;;;;;;;1.00;1.00;;;;;21.65;53.25;101565.59;5096800;27;46411;-79
2022/05/18 06:51:36;;;;;;;;;0.50;0.25;;;;;21.73;53.29;101583.03;5093024;27;47901;-79
2022/05/18 06:54:02;;;;;;;;;0.50;0.25;;;;;21.76;53.54;101580.88;5095826;27;45569;-80
2022/05/18 06:56:30;;;;;;;;;1.00;1.00;;;;;21.74;53.59;101580.16;5097371;27;45392;-80
2022/05/18 06:58:56;;;;;;;;;1.00;1.00;;;;;21.75;53.56;101567.47;5094333;27;48465;-79
2022/05/18 07:01:23;;;;;;;;;0.50;0.50;;;;;21.83;53.16;101578.47;5095713;27;45522;-80
2022/05/18 07:03:48;;;;;;;;;0.00;0.00;;;;;21.73;52.91;101567.59;5095538;27;45461;-79
2022/05/18 07:06:17;;;;;;;;;2.00;2.00;;;;;21.81;52.54;101567.75;5096578;27;45618;-80
2022/05/18 07:08:43;;;;;;;;;1.00;1.00;;;;;21.83;53.01;101567.63;5094653;27;45399;-78
2022/05/18 07:11:08;;;;;;;;;3.00;2.00;;;;;21.89;52.47;101570.66;5092437;27;45527;-78
2022/05/18 07:13:35;;;;;;;;;2.50;2.50;;;;;21.90;53.09;101566.06;5093729;27;45437;-78
2022/05/18 07:16:01;;;;;;;;;1.50;1.50;;;;;21.93;53.38;101573.94;5094102;27;45314;-81
2022/05/18 07:18:29;;;;;;;;;2.00;2.00;;;;;21.96;53.09;101573.66;5095448;27;45548;-78
2022/05/18 07:20:56;;;;;;;;;3.00;2.00;;;;;21.97;53.14;101567.22;5092658;27;45799;-80
2022/05/18 07:23:21;;;;;;;;;1.25;1.25;;;;;22.05;53.74;101572.81;5094533;27;45513;-78
2022/05/18 07:25:47;;;;;;;;;4.25;3.50;;;;;22.08;54.07;101577.97;5092604;27;45555;-80
2022/05/18 07:28:12;;;;;;;;;2.00;2.00;;;;;22.11;53.83;101574.13;5091988;27;55659;-80
2022/05/18 07:30:37;;;;;;;;;1.00;1.00;;;;;22.16;53.38;101581.81;5093632;27;45508;-80
2022/05/18 07:33:03;;;;;;;;;3.00;3.00;;;;;22.19;53.38;101576.13;5097812;27;45579;-79
2022/05/18 07:35:28;;;;;;;;;2.00;2.00;;;;;22.22;53.54;101574.00;5093853;27;45507;-79
2022/05/18 07:37:55;;;;;;;;;2.00;2.00;;;;;22.26;53.67;101577.28;5098585;27;47920;-79
2022/05/18 07:40:20;;;;;;;;;1.00;1.00;;;;;22.27;53.61;101570.84;5095091;27;45551;-80
2022/05/18 07:42:46;;;;;;;;;3.50;3.00;;;;;22.35;53.94;101571.03;5094078;27;45613;-80
2022/05/18 07:45:11;;;;;;;;;2.75;2.75;;;;;22.34;53.44;101569.28;5097097;27;45378;-80
2022/05/18 07:47:37;;;;;;;;;1.00;1.00;;;;;22.43;53.41;101575.72;5094907;27;46486;-80
2022/05/18 07:50:02;;;;;;;;;2.00;2.00;;;;;22.45;53.15;101579.16;5094851;27;45463;-79
2022/05/18 07:52:28;;;;;;;;;2.25;2.25;;;;;22.49;53.38;101577.88;5095308;27;45499;-80
2022/05/18 07:54:53;;;;;;;;;3.75;3.00;;;;;22.51;52.99;101574.03;5093485;27;45754;-79
2022/05/18 07:57:18;;;;;;;;;4.00;4.00;;;;;22.48;53.67;101559.88;5096094;27;46048;-80
2022/05/18 07:59:44;;;;;;;;;3.50;2.25;;;;;22.62;53.67;101578.44;5094304;27;45393;-79
2022/05/18 08:02:10;;;;;;;;;3.00;3.00;;;;;22.67;53.27;101578.00;5095403;27;45553;-80
2022/05/18 08:04:35;;;;;;;;;3.25;2.00;;;;;22.73;53.53;101577.44;5096830;27;45795;-79
2022/05/18 08:07:00;;;;;;;;;1.25;1.25;;;;;22.76;53.42;101579.84;5096601;27;46225;-80
2022/05/18 08:09:26;;;;;;;;;3.50;2.50;;;;;22.80;52.99;101570.41;5093474;27;45613;-80
2022/05/18 08:17:22;;;;;;;;;3.00;3.00;;;;;22.95;53.01;101577.09;5089626;27;45930;-80
2022/05/18 08:19:47;;;;;;;;;3.50;3.00;;;;;23.01;52.91;101564.81;5092344;27;45482;-79
2022/05/18 08:22:13;;;;;;;;;3.00;3.00;;;;;23.07;53.12;101574.25;5096270;27;45672;-80
2022/05/18 08:24:39;;;;;;;;;2.00;2.00;;;;;23.05;53.47;101549.09;5093446;27;45365;-80
2022/05/18 08:27:06;;;;;;;;;3.50;2.00;;;;;23.14;53.62;101559.94;5093551;27;46363;-79
2022/05/18 08:29:31;;;;;;;;;3.75;2.00;;;;;23.24;53.17;101564.47;5087592;27;45733;-80
2022/05/18 08:31:56;;;;;;;;;3.00;2.00;;;;;23.31;53.09;101569.16;5093593;27;45829;-79
2022/05/18 08:34:22;;;;;;;;;2.00;2.00;;;;;23.41;53.50;101565.53;5090307;27;45580;-79
2022/05/18 08:36:47;;;;;;;;;2.00;2.00;;;;;23.40;53.15;101559.22;5091929;27;47118;-79
2022/05/18 08:39:13;;;;;;;;;3.00;3.00;;;;;23.53;53.16;101569.78;5096486;27;45361;-79
2022/05/18 08:41:45;;;;;;;;;4.00;3.00;;;;;23.56;52.76;101555.88;5094775;27;45358;-79
2022/05/18 08:44:24;;;;;;;;;3.00;3.00;;;;;23.66;52.83;101562.13;5096218;27;45540;-79
2022/05/18 08:47:08;;;;;;;;;3.00;3.00;;;;;23.73;52.86;101562.38;5100646;27;46399;-79
2022/05/18 08:49:41;;;;;;;;;2.50;1.50;;;;;23.79;52.54;101568.09;5093201;27;45542;-79
2022/05/18 08:52:19;;;;;;;;;3.50;2.50;;;;;23.84;52.60;101555.91;5091691;27;45449;-79
2022/05/18 08:55:22;;;;;;;;;2.00;2.00;;;;;23.89;52.44;101561.75;5092150;27;45419;-79
2022/05/18 08:57:48;;;;;;;;;5.00;3.00;;;;;23.86;52.04;101548.44;5096835;27;45931;-80
2022/05/18 09:00:23;;;;;;;;;3.25;2.25;;;;;23.93;51.59;101553.13;5093950;27;45570;-80
2022/05/18 09:03:00;;;;;;;;;2.75;2.75;;;;;23.96;52.25;101557.41;5092816;27;46022;-80
2022/05/18 09:05:49;;;;;;;;;2.75;2.75;;;;;24.02;52.24;101549.47;5091949;27;45677;-80
2022/05/18 09:08:22;;;;;;;;;1.50;1.50;;;;;24.05;52.36;101542.84;5049037;28;48404;-80
2022/05/18 09:10:58;;;;;;;;;2.00;2.00;;;;;24.13;51.82;101550.25;5048864;28;45498;-80
2022/05/18 09:13:23;;;;;;;;;2.00;2.00;;;;;24.18;51.49;101535.16;5034109;28;45517;-79
2022/05/18 09:16:07;;;;;;;;;2.00;2.00;;;;;24.23;51.68;101542.88;5049684;28;45540;-79
2022/05/18 09:19:05;;;;;;;;;2.25;2.25;;;;;24.28;51.73;101542.41;5050500;28;46286;-80
2022/05/18 09:21:33;;;;;;;;;3.00;3.00;;;;;24.33;51.08;101543.63;5050057;28;45434;-79
2022/05/18 09:24:39;;;;;;;;;3.00;2.00;;;;;24.38;51.24;101544.00;5049492;28;47061;-79
2022/05/18 09:27:16;;;;;;;;;3.00;3.00;;;;;24.41;51.51;101543.72;5051714;28;45588;-80
2022/05/18 09:29:51;;;;;;;;;3.00;3.00;;;;;24.47;51.48;101531.38;5050340;28;45597;-79
2022/05/18 09:32:45;;;;;;;;;4.75;3.00;;;;;24.49;50.99;101540.25;5050256;28;45578;-80
2022/05/18 09:35:22;;;;;;;;;1.75;1.75;;;;;24.52;51.05;101536.34;5039687;28;45848;-79
2022/05/18 09:38:10;;;;;;;;;3.50;3.00;;;;;24.53;51.22;101530.72;5049335;28;45427;-80
2022/05/18 09:40:47;;;;;;;;;3.00;3.00;;;;;24.55;51.25;101525.97;5048419;28;45516;-80
2022/05/18 09:43:26;;;;;;;;;3.75;3.00;;;;;24.63;50.51;101526.06;5050687;28;46875;-79
2022/05/18 09:45:53;;;;;;;;;3.75;3.75;;;;;24.67;50.86;101526.59;5078648;27;45401;-79
2022/05/18 09:48:22;;;;;;;;;3.25;2.25;;;;;24.76;50.74;101532.94;5094139;27;45397;-79
2022/05/18 09:50:50;;;;;;;;;3.00;2.00;;;;;24.78;50.78;101530.94;5092957;27;45515;-80
2022/05/18 09:53:17;;;;;;;;;2.75;2.75;;;;;24.85;51.04;101523.81;5092393;27;45516;-80
2022/05/18 09:55:46;;;;;;;;;2.50;2.50;;;;;24.91;50.89;101523.16;5092742;27;45528;-80
2022/05/18 09:58:35;;;;;;;;;2.25;2.25;;;;;24.99;50.34;101509.63;5092730;27;45521;-80
2022/05/18 10:09:47;;;;;;;;;3.75;3.75;;;;;25.18;49.98;101491.31;5091406;27;45487;-80
2022/05/18 10:12:18;;;;;;;;;2.25;1.50;;;;;25.38;50.19;101508.28;5097172;27;47279;-80
2022/05/18 10:14:48;;;;;;;;;3.00;3.00;;;;;25.43;50.40;101506.78;5095321;27;45425;-80
2022/05/18 10:17:15;;;;;;;;;5.00;2.50;;;;;25.48;50.52;101495.38;5095086;27;45564;-80
2022/05/18 10:19:52;;;;;;;;;3.00;3.00;;;;;25.60;50.25;101501.38;5092708;27;45557;-80
2022/05/18 10:22:25;;;;;;;;;2.25;2.25;;;;;25.66;49.98;101496.13;5095531;27;45927;-80
2022/05/18 10:25:05;;;;;;;;;3.00;3.00;;;;;25.74;49.72;101489.81;5094872;27;45287;-80
2022/05/18 10:27:36;;;;;;;;;2.00;2.00;;;;;25.79;49.60;101483.88;5097735;27;45449;-80
2022/05/18 10:30:30;;;;;;;;;3.00;2.25;;;;;25.92;48.66;101484.25;5113866;27;45360;-80
2022/05/18 10:33:01;;;;;;;;;4.25;3.50;;;;;25.97;49.13;101490.03;5092868;27;45319;-80
2022/05/18 10:35:41;;;;;;;;;2.00;2.00;;;;;26.02;48.51;101482.19;5094516;27;45495;-80
2022/05/18 10:38:31;;;;;;;;;2.50;2.50;;;;;26.09;48.19;101474.19;5095682;27;45547;-80
2022/05/18 10:41:09;;;;;;;;;4.25;3.00;;;;;26.17;48.17;101478.78;5094914;27;45442;-80
2022/05/18 10:43:46;;;;;;;;;2.25;2.25;;;;;26.23;47.13;101465.31;5094513;27;45544;-80
2022/05/18 10:46:17;;;;;;;;;3.00;3.00;;;;;26.30;47.57;101469.06;5094976;27;45700;-80
2022/05/18 10:48:53;;;;;;;;;3.50;3.50;;;;;26.38;47.60;101456.44;5094226;27;45444;-80
2022/05/18 10:51:32;;;;;;;;;3.75;3.75;;;;;26.46;47.74;101456.44;5095603;27;45248;-80
2022/05/18 10:54:26;;;;;;;;;3.00;3.00;;;;;26.55;47.74;101456.28;5096265;27;47045;-80
2022/05/18 10:57:08;;;;;;;;;4.00;4.00;;;;;26.66;47.62;101456.94;5092433;27;45570;-80
2022/05/18 10:59:43;;;;;;;;;3.00;2.00;;;;;26.71;47.18;101451.81;5096134;27;45413;-80
2022/05/18 11:02:28;;;;;;;;;3.00;3.00;;;;;26.85;46.69;101455.72;5094471;27;45510;-80
2022/05/18 11:05:03;;;;;;;;;3.00;3.00;;;;;26.94;47.11;101450.03;5095789;27;45374;-80
2022/05/18 11:07:30;;;;;;;;;3.25;3.25;;;;;27.06;46.88;101446.91;5095817;27;45433;-80
2022/05/18 11:09:56;;;;;;;;;3.00;3.00;;;;;27.07;46.47;101435.81;5094180;27;45456;-80
2022/05/18 11:12:27;;;;;;;;;3.50;3.00;;;;;27.30;46.29;101454.16;5097513;27;45590;-80
2022/05/18 11:14:57;;;;;;;;;3.25;3.25;;;;;27.39;45.17;101444.91;5095268;27;46907;-80
2022/05/18 11:17:28;;;;;;;;;4.75;3.25;;;;;27.46;44.97;101447.78;5095561;27;45394;-80
2022/05/18 11:20:23;;;;;;;;;2.00;2.00;;;;;27.51;44.82;101437.97;5096008;27;45218;-81
2022/05/18 11:23:01;;;;;;;;;3.00;3.00;;;;;27.62;44.94;101443.06;5094980;27;45401;-81
2022/05/18 11:25:42;;;;;;;;;3.00;3.00;;;;;27.65;45.39;101436.34;5094826;27;45665;-81
2022/05/18 11:28:31;;;;;;;;;5.75;4.00;;;;;27.78;44.64;101436.63;5108240;27;45868;-81
2022/05/18 11:31:10;;;;;;;;;4.00;3.00;;;;;27.90;44.68;101437.09;5087726;27;45577;-81
2022/05/18 11:33:45;;;;;;;;;3.25;3.25;;;;;27.92;44.91;101428.66;5093541;27;45326;-81
2022/05/18 11:36:24;;;;;;;;;3.00;3.00;;;;;28.06;44.78;101435.22;5095493;27;45688;-80
2022/05/18 11:39:03;;;;;;;;;5.00;3.25;;;;;28.14;44.45;101422.34;5095060;27;45270;-80
2022/05/18 11:41:47;;;;;;;;;4.75;4.00;;;;;28.24;44.74;101431.13;5091857;27;45354;-80
2022/05/18 11:44:36;;;;;;;;;3.00;3.00;;;;;28.32;45.11;101421.97;5095303;27;45323;-80
2022/05/18 11:47:38;;;;;;;;;3.00;3.00;;;;;28.43;44.65;101415.19;5094473;27;45538;-81
2022/05/18 11:50:25;;;;;;;;;3.75;3.50;;;;;28.46;43.68;101410.22;5094746;27;45406;-80
2022/05/18 11:53:17;;;;;;;;;3.00;3.00;;;;;28.59;42.88;101411.47;5094986;27;45310;-81
2022/05/18 11:56:01;;;;;;;;;2.25;2.25;;;;;28.67;41.88;101419.56;5094302;27;45920;-81